sensor_id;sensor_type;location;lat;lon;timestamp;P1;durP1;ratioP1;P2;durP2;ratioP2
7104;SDS011;3594;42.152;24.714;2022-09-01T00:02:04;9.75;;;5.05;;
7104;SDS011;3594;42.152;24.714;2022-09-01T00:04:32;9.43;;;4.57;;
7104;SDS011;3594;42.152;24.714;2022-09-01T00:07:00;9.27;;;5.28;;
7104;SDS011;3594;42.152;24.714;2022-09-01T00:09:25;9.32;;;4.70;;
7104;SDS011;3594;42.152;24.714;2022-09-01T00:11:52;10.27;;;4.68;;
7104;SDS011;3594;42.152;24.714;2022-09-01T00:14:24;10.07;;;5.03;;
7104;SDS011;3594;42.152;24.714;2022-09-01T00:16:52;9.02;;;4.45;;
7104;SDS011;3594;42.152;24.714;2022-09-01T00:19:18;9.75;;;5.45;;
7104;SDS011;3594;42.152;24.714;2022-09-01T00:21:44;9.20;;;5.15;;
7104;SDS011;3594;42.152;24.714;2022-09-01T00:24:11;7.65;;;4.60;;
7104;SDS011;3594;42.152;24.714;2022-09-01T00:26:38;11.52;;;5.30;;
7104;SDS011;3594;42.152;24.714;2022-09-01T00:29:03;10.77;;;4.90;;
7104;SDS011;3594;42.152;24.714;2022-09-01T00:31:29;7.68;;;4.55;;
7104;SDS011;3594;42.152;24.714;2022-09-01T00:33:55;8.68;;;4.70;;
7104;SDS011;3594;42.152;24.714;2022-09-01T00:36:21;7.30;;;4.35;;
7104;SDS011;3594;42.152;24.714;2022-09-01T00:38:47;7.40;;;4.53;;
7104;SDS011;3594;42.152;24.714;2022-09-01T00:41:14;6.85;;;4.45;;
7104;SDS011;3594;42.152;24.714;2022-09-01T00:43:42;8.50;;;4.97;;
7104;SDS011;3594;42.152;24.714;2022-09-01T00:46:20;9.30;;;4.78;;
7104;SDS011;3594;42.152;24.714;2022-09-01T00:48:46;10.57;;;5.38;;
7104;SDS011;3594;42.152;24.714;2022-09-01T00:51:16;9.18;;;5.13;;
7104;SDS011;3594;42.152;24.714;2022-09-01T00:53:42;11.60;;;5.75;;
7104;SDS011;3594;42.152;24.714;2022-09-01T00:56:09;15.07;;;6.28;;
7104;SDS011;3594;42.152;24.714;2022-09-01T00:58:35;13.23;;;6.68;;
7104;SDS011;3594;42.152;24.714;2022-09-01T01:01:03;12.73;;;6.45;;
7104;SDS011;3594;42.152;24.714;2022-09-01T01:03:32;11.15;;;5.80;;
7104;SDS011;3594;42.152;24.714;2022-09-01T01:06:00;12.43;;;6.68;;
7104;SDS011;3594;42.152;24.714;2022-09-01T01:08:33;12.18;;;6.18;;
7104;SDS011;3594;42.152;24.714;2022-09-01T01:11:06;11.65;;;6.47;;
7104;SDS011;3594;42.152;24.714;2022-09-01T01:16:13;11.70;;;6.45;;
7104;SDS011;3594;42.152;24.714;2022-09-01T01:18:40;17.00;;;7.07;;
7104;SDS011;3594;42.152;24.714;2022-09-01T01:21:06;10.38;;;6.50;;
7104;SDS011;3594;42.152;24.714;2022-09-01T01:24:00;14.48;;;7.43;;
7104;SDS011;3594;42.152;24.714;2022-09-01T01:26:30;16.92;;;7.50;;
7104;SDS011;3594;42.152;24.714;2022-09-01T01:28:56;13.50;;;7.35;;
7104;SDS011;3594;42.152;24.714;2022-09-01T01:31:21;15.25;;;7.20;;
7104;SDS011;3594;42.152;24.714;2022-09-01T01:33:50;15.18;;;7.13;;
7104;SDS011;3594;42.152;24.714;2022-09-01T01:36:18;13.88;;;7.15;;
7104;SDS011;3594;42.152;24.714;2022-09-01T01:38:51;13.50;;;7.05;;
7104;SDS011;3594;42.152;24.714;2022-09-01T01:41:18;18.30;;;7.63;;
7104;SDS011;3594;42.152;24.714;2022-09-01T01:43:44;13.93;;;6.38;;
7104;SDS011;3594;42.152;24.714;2022-09-01T01:46:10;10.90;;;6.78;;
7104;SDS011;3594;42.152;24.714;2022-09-01T01:48:38;15.90;;;6.70;;
7104;SDS011;3594;42.152;24.714;2022-09-01T01:51:06;11.95;;;6.05;;
7104;SDS011;3594;42.152;24.714;2022-09-01T01:53:32;14.30;;;7.10;;
7104;SDS011;3594;42.152;24.714;2022-09-01T01:55:58;11.55;;;6.28;;
7104;SDS011;3594;42.152;24.714;2022-09-01T01:58:25;11.25;;;6.53;;
7104;SDS011;3594;42.152;24.714;2022-09-01T02:00:53;13.50;;;6.93;;
7104;SDS011;3594;42.152;24.714;2022-09-01T02:03:20;14.35;;;7.07;;
7104;SDS011;3594;42.152;24.714;2022-09-01T02:05:50;15.48;;;7.93;;
7104;SDS011;3594;42.152;24.714;2022-09-01T02:08:17;11.82;;;7.45;;
7104;SDS011;3594;42.152;24.714;2022-09-01T02:10:45;13.20;;;7.18;;
7104;SDS011;3594;42.152;24.714;2022-09-01T02:13:13;11.68;;;6.65;;
7104;SDS011;3594;42.152;24.714;2022-09-01T02:15:42;12.25;;;7.07;;
7104;SDS011;3594;42.152;24.714;2022-09-01T02:18:11;11.63;;;6.95;;
7104;SDS011;3594;42.152;24.714;2022-09-01T02:20:40;13.27;;;7.22;;
7104;SDS011;3594;42.152;24.714;2022-09-01T02:23:06;12.27;;;6.40;;
7104;SDS011;3594;42.152;24.714;2022-09-01T02:25:35;11.18;;;6.88;;
7104;SDS011;3594;42.152;24.714;2022-09-01T02:28:08;10.07;;;5.95;;
7104;SDS011;3594;42.152;24.714;2022-09-01T02:30:45;14.93;;;7.05;;
7104;SDS011;3594;42.152;24.714;2022-09-01T02:33:19;12.63;;;6.55;;
7104;SDS011;3594;42.152;24.714;2022-09-01T02:35:46;10.23;;;6.25;;
7104;SDS011;3594;42.152;24.714;2022-09-01T02:38:16;14.77;;;7.20;;
7104;SDS011;3594;42.152;24.714;2022-09-01T02:40:42;12.98;;;6.80;;
7104;SDS011;3594;42.152;24.714;2022-09-01T02:43:11;14.32;;;7.25;;
7104;SDS011;3594;42.152;24.714;2022-09-01T02:45:37;10.63;;;6.15;;
7104;SDS011;3594;42.152;24.714;2022-09-01T02:48:04;11.65;;;6.72;;
7104;SDS011;3594;42.152;24.714;2022-09-01T02:50:36;13.32;;;7.07;;
7104;SDS011;3594;42.152;24.714;2022-09-01T02:53:03;14.45;;;7.05;;
7104;SDS011;3594;42.152;24.714;2022-09-01T02:55:34;13.60;;;7.30;;
7104;SDS011;3594;42.152;24.714;2022-09-01T02:58:00;11.43;;;6.63;;
7104;SDS011;3594;42.152;24.714;2022-09-01T03:00:26;10.90;;;6.45;;
7104;SDS011;3594;42.152;24.714;2022-09-01T03:02:59;14.70;;;7.30;;
7104;SDS011;3594;42.152;24.714;2022-09-01T03:05:26;12.20;;;6.72;;
7104;SDS011;3594;42.152;24.714;2022-09-01T03:08:01;14.30;;;7.63;;
7104;SDS011;3594;42.152;24.714;2022-09-01T03:10:32;12.57;;;7.30;;
7104;SDS011;3594;42.152;24.714;2022-09-01T03:13:02;13.48;;;6.47;;
7104;SDS011;3594;42.152;24.714;2022-09-01T03:15:33;12.70;;;6.82;;
7104;SDS011;3594;42.152;24.714;2022-09-01T03:18:00;15.40;;;7.50;;
7104;SDS011;3594;42.152;24.714;2022-09-01T03:20:28;15.43;;;7.15;;
7104;SDS011;3594;42.152;24.714;2022-09-01T03:22:55;11.82;;;7.05;;
7104;SDS011;3594;42.152;24.714;2022-09-01T03:25:22;12.48;;;7.18;;
7104;SDS011;3594;42.152;24.714;2022-09-01T03:27:50;13.20;;;7.05;;
7104;SDS011;3594;42.152;24.714;2022-09-01T03:30:16;14.52;;;7.65;;
7104;SDS011;3594;42.152;24.714;2022-09-01T03:32:43;11.13;;;6.28;;
7104;SDS011;3594;42.152;24.714;2022-09-01T03:35:09;13.68;;;7.40;;
7104;SDS011;3594;42.152;24.714;2022-09-01T03:37:35;14.77;;;7.25;;
7104;SDS011;3594;42.152;24.714;2022-09-01T03:40:02;17.13;;;7.93;;
7104;SDS011;3594;42.152;24.714;2022-09-01T03:42:30;14.88;;;7.32;;
7104;SDS011;3594;42.152;24.714;2022-09-01T03:44:56;13.63;;;7.30;;
7104;SDS011;3594;42.152;24.714;2022-09-01T03:47:22;14.52;;;8.15;;
7104;SDS011;3594;42.152;24.714;2022-09-01T03:49:48;16.05;;;6.90;;
7104;SDS011;3594;42.152;24.714;2022-09-01T03:52:15;12.25;;;7.13;;
7104;SDS011;3594;42.152;24.714;2022-09-01T03:54:42;14.85;;;7.30;;
7104;SDS011;3594;42.152;24.714;2022-09-01T03:57:09;18.88;;;8.13;;
7104;SDS011;3594;42.152;24.714;2022-09-01T03:59:35;15.40;;;7.97;;
7104;SDS011;3594;42.152;24.714;2022-09-01T04:02:07;12.75;;;6.82;;
7104;SDS011;3594;42.152;24.714;2022-09-01T04:04:33;16.17;;;8.32;;
7104;SDS011;3594;42.152;24.714;2022-09-01T04:06:58;13.25;;;7.05;;
7104;SDS011;3594;42.152;24.714;2022-09-01T04:09:24;13.32;;;7.10;;
7104;SDS011;3594;42.152;24.714;2022-09-01T04:11:51;12.02;;;6.78;;
7104;SDS011;3594;42.152;24.714;2022-09-01T04:14:17;15.38;;;7.28;;
7104;SDS011;3594;42.152;24.714;2022-09-01T04:16:43;14.27;;;7.15;;
7104;SDS011;3594;42.152;24.714;2022-09-01T04:19:27;14.73;;;8.32;;
7104;SDS011;3594;42.152;24.714;2022-09-01T04:21:55;12.57;;;6.47;;
7104;SDS011;3594;42.152;24.714;2022-09-01T04:24:24;11.63;;;7.13;;
7104;SDS011;3594;42.152;24.714;2022-09-01T04:26:52;12.95;;;6.85;;
7104;SDS011;3594;42.152;24.714;2022-09-01T04:29:19;12.75;;;7.15;;
7104;SDS011;3594;42.152;24.714;2022-09-01T04:32:01;11.90;;;6.45;;
7104;SDS011;3594;42.152;24.714;2022-09-01T04:34:30;11.75;;;6.43;;
7104;SDS011;3594;42.152;24.714;2022-09-01T04:37:01;12.02;;;6.57;;
7104;SDS011;3594;42.152;24.714;2022-09-01T04:39:39;10.50;;;6.22;;
7104;SDS011;3594;42.152;24.714;2022-09-01T04:42:12;11.50;;;6.45;;
7104;SDS011;3594;42.152;24.714;2022-09-01T04:44:38;12.13;;;6.65;;
7104;SDS011;3594;42.152;24.714;2022-09-01T04:47:03;11.57;;;6.15;;
7104;SDS011;3594;42.152;24.714;2022-09-01T04:49:35;10.93;;;6.68;;
7104;SDS011;3594;42.152;24.714;2022-09-01T04:52:01;11.77;;;5.72;;
7104;SDS011;3594;42.152;24.714;2022-09-01T04:54:28;16.38;;;7.55;;
7104;SDS011;3594;42.152;24.714;2022-09-01T04:56:54;14.82;;;7.57;;
7104;SDS011;3594;42.152;24.714;2022-09-01T04:59:21;12.55;;;7.15;;
7104;SDS011;3594;42.152;24.714;2022-09-01T05:01:48;11.90;;;6.30;;
7104;SDS011;3594;42.152;24.714;2022-09-01T05:04:15;12.65;;;6.90;;
7104;SDS011;3594;42.152;24.714;2022-09-01T05:06:50;10.75;;;5.80;;
7104;SDS011;3594;42.152;24.714;2022-09-01T05:09:21;9.05;;;5.70;;
7104;SDS011;3594;42.152;24.714;2022-09-01T05:11:49;10.90;;;5.65;;
7104;SDS011;3594;42.152;24.714;2022-09-01T05:14:15;10.27;;;4.90;;
7104;SDS011;3594;42.152;24.714;2022-09-01T05:16:43;9.68;;;5.30;;
7104;SDS011;3594;42.152;24.714;2022-09-01T05:19:09;9.15;;;5.68;;
7104;SDS011;3594;42.152;24.714;2022-09-01T05:21:39;8.73;;;5.40;;
7104;SDS011;3594;42.152;24.714;2022-09-01T05:24:09;10.35;;;5.20;;
7104;SDS011;3594;42.152;24.714;2022-09-01T05:26:36;11.63;;;5.07;;
7104;SDS011;3594;42.152;24.714;2022-09-01T05:29:05;9.93;;;5.20;;
7104;SDS011;3594;42.152;24.714;2022-09-01T05:31:40;8.60;;;5.05;;
7104;SDS011;3594;42.152;24.714;2022-09-01T05:34:08;9.60;;;6.03;;
7104;SDS011;3594;42.152;24.714;2022-09-01T05:36:34;8.45;;;6.03;;
7104;SDS011;3594;42.152;24.714;2022-09-01T05:39:03;9.18;;;6.03;;
7104;SDS011;3594;42.152;24.714;2022-09-01T05:41:29;9.38;;;5.38;;
7104;SDS011;3594;42.152;24.714;2022-09-01T05:43:57;11.95;;;6.03;;
7104;SDS011;3594;42.152;24.714;2022-09-01T05:46:24;10.20;;;6.35;;
7104;SDS011;3594;42.152;24.714;2022-09-01T05:48:53;8.18;;;5.47;;
7104;SDS011;3594;42.152;24.714;2022-09-01T05:51:20;12.48;;;6.25;;
7104;SDS011;3594;42.152;24.714;2022-09-01T05:53:51;9.88;;;5.82;;
7104;SDS011;3594;42.152;24.714;2022-09-01T05:56:19;8.93;;;5.80;;
7104;SDS011;3594;42.152;24.714;2022-09-01T05:58:46;8.77;;;5.40;;
7104;SDS011;3594;42.152;24.714;2022-09-01T06:01:19;8.85;;;5.72;;
7104;SDS011;3594;42.152;24.714;2022-09-01T06:03:52;8.35;;;5.55;;
7104;SDS011;3594;42.152;24.714;2022-09-01T06:06:21;9.10;;;5.68;;
7104;SDS011;3594;42.152;24.714;2022-09-01T06:08:49;10.38;;;5.78;;
7104;SDS011;3594;42.152;24.714;2022-09-01T06:11:15;7.78;;;5.28;;
7104;SDS011;3594;42.152;24.714;2022-09-01T06:13:44;8.80;;;5.55;;
7104;SDS011;3594;42.152;24.714;2022-09-01T06:16:14;10.18;;;5.32;;
7104;SDS011;3594;42.152;24.714;2022-09-01T06:18:41;8.57;;;5.43;;
7104;SDS011;3594;42.152;24.714;2022-09-01T06:21:08;11.77;;;6.15;;
7104;SDS011;3594;42.152;24.714;2022-09-01T06:23:39;8.20;;;5.22;;
7104;SDS011;3594;42.152;24.714;2022-09-01T06:26:07;9.50;;;5.15;;
7104;SDS011;3594;42.152;24.714;2022-09-01T06:28:42;8.80;;;5.18;;
7104;SDS011;3594;42.152;24.714;2022-09-01T06:31:08;9.88;;;5.70;;
7104;SDS011;3594;42.152;24.714;2022-09-01T06:33:34;7.88;;;5.43;;
7104;SDS011;3594;42.152;24.714;2022-09-01T06:36:03;8.27;;;5.25;;
7104;SDS011;3594;42.152;24.714;2022-09-01T06:38:29;9.75;;;5.25;;
7104;SDS011;3594;42.152;24.714;2022-09-01T06:41:04;9.20;;;5.20;;
7104;SDS011;3594;42.152;24.714;2022-09-01T06:43:37;8.32;;;5.18;;
7104;SDS011;3594;42.152;24.714;2022-09-01T06:46:06;8.27;;;5.40;;
7104;SDS011;3594;42.152;24.714;2022-09-01T06:48:34;11.75;;;5.53;;
7104;SDS011;3594;42.152;24.714;2022-09-01T06:51:10;9.55;;;5.75;;
7104;SDS011;3594;42.152;24.714;2022-09-01T06:53:43;7.13;;;5.05;;
7104;SDS011;3594;42.152;24.714;2022-09-01T06:56:21;8.25;;;5.05;;
7104;SDS011;3594;42.152;24.714;2022-09-01T06:58:50;8.95;;;5.43;;
7104;SDS011;3594;42.152;24.714;2022-09-01T07:01:16;6.88;;;4.90;;
7104;SDS011;3594;42.152;24.714;2022-09-01T07:03:44;8.48;;;4.85;;
7104;SDS011;3594;42.152;24.714;2022-09-01T07:06:12;11.57;;;6.57;;
7104;SDS011;3594;42.152;24.714;2022-09-01T07:08:39;9.02;;;5.47;;
7104;SDS011;3594;42.152;24.714;2022-09-01T07:11:16;8.45;;;5.30;;
7104;SDS011;3594;42.152;24.714;2022-09-01T07:13:50;8.52;;;5.50;;
7104;SDS011;3594;42.152;24.714;2022-09-01T07:16:20;8.80;;;5.38;;
7104;SDS011;3594;42.152;24.714;2022-09-01T07:18:50;9.52;;;5.55;;
7104;SDS011;3594;42.152;24.714;2022-09-01T07:21:18;10.80;;;5.63;;
7104;SDS011;3594;42.152;24.714;2022-09-01T07:23:44;8.95;;;5.88;;
7104;SDS011;3594;42.152;24.714;2022-09-01T07:26:11;8.85;;;5.47;;
7104;SDS011;3594;42.152;24.714;2022-09-01T07:28:46;10.15;;;6.50;;
7104;SDS011;3594;42.152;24.714;2022-09-01T07:31:21;9.25;;;5.70;;
7104;SDS011;3594;42.152;24.714;2022-09-01T07:33:49;11.75;;;6.35;;
7104;SDS011;3594;42.152;24.714;2022-09-01T07:36:17;11.43;;;5.82;;
7104;SDS011;3594;42.152;24.714;2022-09-01T07:38:43;9.02;;;6.05;;
7104;SDS011;3594;42.152;24.714;2022-09-01T07:41:09;12.23;;;6.03;;
7104;SDS011;3594;42.152;24.714;2022-09-01T07:43:38;10.68;;;6.65;;
7104;SDS011;3594;42.152;24.714;2022-09-01T07:46:09;10.15;;;6.43;;
7104;SDS011;3594;42.152;24.714;2022-09-01T07:48:35;11.35;;;6.28;;
7104;SDS011;3594;42.152;24.714;2022-09-01T07:51:01;8.23;;;5.38;;
7104;SDS011;3594;42.152;24.714;2022-09-01T07:53:28;11.40;;;5.80;;
7104;SDS011;3594;42.152;24.714;2022-09-01T07:55:56;10.15;;;5.20;;
7104;SDS011;3594;42.152;24.714;2022-09-01T07:58:24;8.90;;;5.80;;
7104;SDS011;3594;42.152;24.714;2022-09-01T08:00:51;11.52;;;5.93;;
7104;SDS011;3594;42.152;24.714;2022-09-01T08:03:20;7.15;;;5.25;;
7104;SDS011;3594;42.152;24.714;2022-09-01T08:05:49;9.40;;;6.03;;
7104;SDS011;3594;42.152;24.714;2022-09-01T08:08:18;12.20;;;5.80;;
7104;SDS011;3594;42.152;24.714;2022-09-01T08:10:45;10.82;;;5.80;;
7104;SDS011;3594;42.152;24.714;2022-09-01T08:13:11;7.05;;;4.85;;
7104;SDS011;3594;42.152;24.714;2022-09-01T08:15:37;8.75;;;5.32;;
7104;SDS011;3594;42.152;24.714;2022-09-01T08:18:04;6.95;;;5.25;;
7104;SDS011;3594;42.152;24.714;2022-09-01T08:20:29;9.27;;;5.50;;
7104;SDS011;3594;42.152;24.714;2022-09-01T08:22:59;8.20;;;5.38;;
7104;SDS011;3594;42.152;24.714;2022-09-01T08:25:24;10.90;;;5.88;;
7104;SDS011;3594;42.152;24.714;2022-09-01T08:27:50;8.93;;;4.93;;
7104;SDS011;3594;42.152;24.714;2022-09-01T08:30:16;7.57;;;5.05;;
7104;SDS011;3594;42.152;24.714;2022-09-01T08:32:41;8.90;;;5.30;;
7104;SDS011;3594;42.152;24.714;2022-09-01T08:35:07;9.40;;;5.53;;
7104;SDS011;3594;42.152;24.714;2022-09-01T08:37:35;9.23;;;4.93;;
7104;SDS011;3594;42.152;24.714;2022-09-01T08:40:01;9.10;;;5.40;;
7104;SDS011;3594;42.152;24.714;2022-09-01T08:45:14;8.27;;;5.07;;
7104;SDS011;3594;42.152;24.714;2022-09-01T08:47:51;9.43;;;5.05;;
7104;SDS011;3594;42.152;24.714;2022-09-01T08:50:21;8.57;;;5.18;;
7104;SDS011;3594;42.152;24.714;2022-09-01T08:53:01;8.80;;;5.25;;
7104;SDS011;3594;42.152;24.714;2022-09-01T08:55:34;12.30;;;5.10;;
7104;SDS011;3594;42.152;24.714;2022-09-01T08:58:04;6.82;;;4.78;;
7104;SDS011;3594;42.152;24.714;2022-09-01T09:00:32;11.68;;;4.85;;
7104;SDS011;3594;42.152;24.714;2022-09-01T09:19:02;9.02;;;4.85;;
7104;SDS011;3594;42.152;24.714;2022-09-01T09:21:33;7.68;;;5.30;;
7104;SDS011;3594;42.152;24.714;2022-09-01T09:27:11;11.95;;;5.55;;
7104;SDS011;3594;42.152;24.714;2022-09-01T09:29:41;8.55;;;5.50;;
7104;SDS011;3594;42.152;24.714;2022-09-01T09:32:08;8.85;;;5.13;;
7104;SDS011;3594;42.152;24.714;2022-09-01T09:34:40;8.38;;;5.30;;
7104;SDS011;3594;42.152;24.714;2022-09-01T09:42:39;8.02;;;5.30;;
7104;SDS011;3594;42.152;24.714;2022-09-01T09:45:20;6.50;;;4.80;;
7104;SDS011;3594;42.152;24.714;2022-09-01T09:47:46;9.15;;;5.55;;
7104;SDS011;3594;42.152;24.714;2022-09-01T09:50:13;7.85;;;5.15;;
7104;SDS011;3594;42.152;24.714;2022-09-01T09:52:41;7.00;;;4.05;;
7104;SDS011;3594;42.152;24.714;2022-09-01T09:55:21;6.25;;;3.92;;
7104;SDS011;3594;42.152;24.714;2022-09-01T09:57:54;6.85;;;3.95;;
7104;SDS011;3594;42.152;24.714;2022-09-01T10:03:16;6.25;;;3.88;;
7104;SDS011;3594;42.152;24.714;2022-09-01T10:05:47;7.00;;;3.85;;
7104;SDS011;3594;42.152;24.714;2022-09-01T10:11:01;10.10;;;5.10;;
7104;SDS011;3594;42.152;24.714;2022-09-01T10:13:27;7.57;;;4.72;;
7104;SDS011;3594;42.152;24.714;2022-09-01T10:15:57;6.30;;;3.88;;
7104;SDS011;3594;42.152;24.714;2022-09-01T10:18:26;6.53;;;3.78;;
7104;SDS011;3594;42.152;24.714;2022-09-01T10:21:00;7.07;;;4.43;;
7104;SDS011;3594;42.152;24.714;2022-09-01T10:23:32;6.65;;;4.38;;
7104;SDS011;3594;42.152;24.714;2022-09-01T10:26:05;7.90;;;4.30;;
7104;SDS011;3594;42.152;24.714;2022-09-01T10:28:37;7.95;;;4.60;;
7104;SDS011;3594;42.152;24.714;2022-09-01T10:31:10;7.88;;;4.18;;
7104;SDS011;3594;42.152;24.714;2022-09-01T10:33:35;11.15;;;5.82;;
7104;SDS011;3594;42.152;24.714;2022-09-01T10:36:01;9.27;;;5.38;;
7104;SDS011;3594;42.152;24.714;2022-09-01T10:38:27;9.55;;;5.32;;
7104;SDS011;3594;42.152;24.714;2022-09-01T10:40:54;11.68;;;4.72;;
7104;SDS011;3594;42.152;24.714;2022-09-01T10:45:57;5.72;;;4.00;;
7104;SDS011;3594;42.152;24.714;2022-09-01T10:48:25;4.90;;;3.75;;
7104;SDS011;3594;42.152;24.714;2022-09-01T10:51:33;6.47;;;4.47;;
7104;SDS011;3594;42.152;24.714;2022-09-01T10:56:16;5.70;;;3.88;;
7104;SDS011;3594;42.152;24.714;2022-09-01T11:07:00;7.15;;;4.78;;
7104;SDS011;3594;42.152;24.714;2022-09-01T11:17:24;6.30;;;4.28;;
7104;SDS011;3594;42.152;24.714;2022-09-01T11:20:21;12.38;;;4.70;;
7104;SDS011;3594;42.152;24.714;2022-09-01T11:25:38;8.43;;;4.30;;
7104;SDS011;3594;42.152;24.714;2022-09-01T11:30:43;5.15;;;3.83;;
7104;SDS011;3594;42.152;24.714;2022-09-01T11:38:53;6.50;;;4.28;;
7104;SDS011;3594;42.152;24.714;2022-09-01T11:41:24;6.38;;;4.40;;
7104;SDS011;3594;42.152;24.714;2022-09-01T11:44:12;7.45;;;4.40;;
7104;SDS011;3594;42.152;24.714;2022-09-01T11:46:48;6.30;;;3.92;;
7104;SDS011;3594;42.152;24.714;2022-09-01T11:51:53;6.82;;;4.45;;
7104;SDS011;3594;42.152;24.714;2022-09-01T11:54:21;5.82;;;3.80;;
7104;SDS011;3594;42.152;24.714;2022-09-01T11:56:47;10.52;;;3.95;;
7104;SDS011;3594;42.152;24.714;2022-09-01T11:59:13;6.22;;;4.25;;
7104;SDS011;3594;42.152;24.714;2022-09-01T12:01:38;5.70;;;3.92;;
7104;SDS011;3594;42.152;24.714;2022-09-01T12:07:05;5.13;;;3.65;;
7104;SDS011;3594;42.152;24.714;2022-09-01T12:09:36;7.22;;;3.72;;
7104;SDS011;3594;42.152;24.714;2022-09-01T12:12:06;5.90;;;4.13;;
7104;SDS011;3594;42.152;24.714;2022-09-01T12:14:59;5.45;;;3.70;;
7104;SDS011;3594;42.152;24.714;2022-09-01T12:17:31;9.25;;;4.78;;
7104;SDS011;3594;42.152;24.714;2022-09-01T12:20:17;11.45;;;4.55;;
7104;SDS011;3594;42.152;24.714;2022-09-01T12:22:45;5.68;;;3.70;;
7104;SDS011;3594;42.152;24.714;2022-09-01T12:25:20;6.05;;;4.18;;
7104;SDS011;3594;42.152;24.714;2022-09-01T12:27:49;6.30;;;4.80;;
7104;SDS011;3594;42.152;24.714;2022-09-01T12:30:15;5.60;;;4.00;;
7104;SDS011;3594;42.152;24.714;2022-09-01T12:32:41;7.07;;;4.55;;
7104;SDS011;3594;42.152;24.714;2022-09-01T12:35:25;6.90;;;4.22;;
7104;SDS011;3594;42.152;24.714;2022-09-01T12:37:51;11.60;;;4.43;;
7104;SDS011;3594;42.152;24.714;2022-09-01T12:40:37;6.38;;;3.92;;
7104;SDS011;3594;42.152;24.714;2022-09-01T12:43:02;6.75;;;4.35;;
7104;SDS011;3594;42.152;24.714;2022-09-01T12:45:38;5.78;;;4.30;;
7104;SDS011;3594;42.152;24.714;2022-09-01T12:48:05;5.75;;;4.28;;
7104;SDS011;3594;42.152;24.714;2022-09-01T12:50:32;6.25;;;4.25;;
7104;SDS011;3594;42.152;24.714;2022-09-01T12:53:00;6.38;;;4.63;;
7104;SDS011;3594;42.152;24.714;2022-09-01T12:55:29;9.02;;;4.80;;
7104;SDS011;3594;42.152;24.714;2022-09-01T12:58:03;6.57;;;4.70;;
7104;SDS011;3594;42.152;24.714;2022-09-01T13:00:32;6.07;;;4.47;;
7104;SDS011;3594;42.152;24.714;2022-09-01T13:03:12;5.40;;;4.10;;
7104;SDS011;3594;42.152;24.714;2022-09-01T13:05:42;6.30;;;4.57;;
7104;SDS011;3594;42.152;24.714;2022-09-01T13:08:17;8.10;;;4.25;;
7104;SDS011;3594;42.152;24.714;2022-09-01T13:10:58;6.10;;;4.57;;
7104;SDS011;3594;42.152;24.714;2022-09-01T13:13:27;7.95;;;5.00;;
7104;SDS011;3594;42.152;24.714;2022-09-01T13:15:54;7.90;;;4.65;;
7104;SDS011;3594;42.152;24.714;2022-09-01T13:18:23;7.30;;;4.90;;
7104;SDS011;3594;42.152;24.714;2022-09-01T13:20:50;9.73;;;5.18;;
7104;SDS011;3594;42.152;24.714;2022-09-01T13:23:17;8.48;;;4.88;;
7104;SDS011;3594;42.152;24.714;2022-09-01T13:25:44;6.72;;;4.88;;
7104;SDS011;3594;42.152;24.714;2022-09-01T13:28:10;7.20;;;4.95;;
7104;SDS011;3594;42.152;24.714;2022-09-01T13:30:40;7.53;;;4.50;;
7104;SDS011;3594;42.152;24.714;2022-09-01T13:33:07;5.72;;;4.47;;
7104;SDS011;3594;42.152;24.714;2022-09-01T13:35:32;7.15;;;4.82;;
7104;SDS011;3594;42.152;24.714;2022-09-01T13:37:58;6.93;;;4.63;;
7104;SDS011;3594;42.152;24.714;2022-09-01T13:40:23;6.65;;;4.53;;
7104;SDS011;3594;42.152;24.714;2022-09-01T13:42:50;7.07;;;4.93;;
7104;SDS011;3594;42.152;24.714;2022-09-01T13:45:17;7.35;;;4.85;;
7104;SDS011;3594;42.152;24.714;2022-09-01T13:47:45;8.38;;;4.63;;
7104;SDS011;3594;42.152;24.714;2022-09-01T13:50:13;7.65;;;4.63;;
7104;SDS011;3594;42.152;24.714;2022-09-01T13:52:43;7.60;;;4.57;;
7104;SDS011;3594;42.152;24.714;2022-09-01T13:55:11;6.15;;;4.43;;
7104;SDS011;3594;42.152;24.714;2022-09-01T13:57:39;7.35;;;4.68;;
7104;SDS011;3594;42.152;24.714;2022-09-01T14:00:07;6.20;;;4.50;;
7104;SDS011;3594;42.152;24.714;2022-09-01T14:02:35;8.50;;;4.55;;
7104;SDS011;3594;42.152;24.714;2022-09-01T14:05:05;6.82;;;4.65;;
7104;SDS011;3594;42.152;24.714;2022-09-01T14:07:31;9.93;;;5.03;;
7104;SDS011;3594;42.152;24.714;2022-09-01T14:09:56;6.78;;;4.10;;
7104;SDS011;3594;42.152;24.714;2022-09-01T14:12:22;8.30;;;4.45;;
7104;SDS011;3594;42.152;24.714;2022-09-01T14:14:48;7.32;;;4.40;;
7104;SDS011;3594;42.152;24.714;2022-09-01T14:17:13;7.20;;;4.65;;
7104;SDS011;3594;42.152;24.714;2022-09-01T14:19:39;6.95;;;4.57;;
7104;SDS011;3594;42.152;24.714;2022-09-01T14:22:05;6.40;;;4.55;;
7104;SDS011;3594;42.152;24.714;2022-09-01T14:24:35;12.65;;;4.82;;
7104;SDS011;3594;42.152;24.714;2022-09-01T14:27:01;8.60;;;4.55;;
7104;SDS011;3594;42.152;24.714;2022-09-01T14:29:27;6.30;;;4.47;;
7104;SDS011;3594;42.152;24.714;2022-09-01T14:31:53;7.22;;;4.60;;
7104;SDS011;3594;42.152;24.714;2022-09-01T14:34:21;6.97;;;4.28;;
7104;SDS011;3594;42.152;24.714;2022-09-01T14:36:48;6.10;;;4.28;;
7104;SDS011;3594;42.152;24.714;2022-09-01T14:39:14;6.68;;;4.10;;
7104;SDS011;3594;42.152;24.714;2022-09-01T14:41:40;8.80;;;4.50;;
7104;SDS011;3594;42.152;24.714;2022-09-01T14:44:05;7.53;;;4.70;;
7104;SDS011;3594;42.152;24.714;2022-09-01T14:46:31;7.93;;;4.20;;
7104;SDS011;3594;42.152;24.714;2022-09-01T14:48:59;6.35;;;4.18;;
7104;SDS011;3594;42.152;24.714;2022-09-01T14:51:26;6.25;;;4.10;;
7104;SDS011;3594;42.152;24.714;2022-09-01T14:53:53;6.38;;;4.53;;
7104;SDS011;3594;42.152;24.714;2022-09-01T14:56:20;13.68;;;4.60;;
7104;SDS011;3594;42.152;24.714;2022-09-01T14:58:46;7.47;;;5.10;;
7104;SDS011;3594;42.152;24.714;2022-09-01T15:01:14;6.18;;;4.60;;
7104;SDS011;3594;42.152;24.714;2022-09-01T15:03:41;8.63;;;5.00;;
7104;SDS011;3594;42.152;24.714;2022-09-01T15:06:10;8.25;;;4.35;;
7104;SDS011;3594;42.152;24.714;2022-09-01T15:08:37;5.93;;;4.07;;
7104;SDS011;3594;42.152;24.714;2022-09-01T15:11:06;11.60;;;5.00;;
7104;SDS011;3594;42.152;24.714;2022-09-01T15:13:36;6.75;;;4.75;;
7104;SDS011;3594;42.152;24.714;2022-09-01T15:16:02;7.40;;;4.95;;
7104;SDS011;3594;42.152;24.714;2022-09-01T15:18:29;6.57;;;4.95;;
7104;SDS011;3594;42.152;24.714;2022-09-01T15:20:54;11.05;;;4.78;;
7104;SDS011;3594;42.152;24.714;2022-09-01T15:23:21;9.73;;;6.03;;
7104;SDS011;3594;42.152;24.714;2022-09-01T15:25:49;9.38;;;6.10;;
7104;SDS011;3594;42.152;24.714;2022-09-01T15:28:16;8.52;;;6.10;;
7104;SDS011;3594;42.152;24.714;2022-09-01T15:30:42;17.58;;;6.68;;
7104;SDS011;3594;42.152;24.714;2022-09-01T15:33:09;9.50;;;6.75;;
7104;SDS011;3594;42.152;24.714;2022-09-01T15:35:36;11.68;;;7.07;;
7104;SDS011;3594;42.152;24.714;2022-09-01T15:38:02;9.30;;;6.55;;
7104;SDS011;3594;42.152;24.714;2022-09-01T15:40:28;8.60;;;6.22;;
7104;SDS011;3594;42.152;24.714;2022-09-01T15:42:54;11.85;;;7.40;;
7104;SDS011;3594;42.152;24.714;2022-09-01T15:45:22;11.32;;;6.78;;
7104;SDS011;3594;42.152;24.714;2022-09-01T15:47:48;11.15;;;6.60;;
7104;SDS011;3594;42.152;24.714;2022-09-01T15:50:17;10.32;;;6.47;;
7104;SDS011;3594;42.152;24.714;2022-09-01T15:52:47;11.07;;;6.53;;
7104;SDS011;3594;42.152;24.714;2022-09-01T15:55:24;11.55;;;7.18;;
7104;SDS011;3594;42.152;24.714;2022-09-01T15:57:52;10.05;;;6.60;;
7104;SDS011;3594;42.152;24.714;2022-09-01T16:00:19;15.07;;;6.50;;
7104;SDS011;3594;42.152;24.714;2022-09-01T16:02:46;12.70;;;6.70;;
7104;SDS011;3594;42.152;24.714;2022-09-01T16:05:11;9.57;;;6.88;;
7104;SDS011;3594;42.152;24.714;2022-09-01T16:07:38;8.30;;;6.43;;
7104;SDS011;3594;42.152;24.714;2022-09-01T16:10:04;8.90;;;5.95;;
7104;SDS011;3594;42.152;24.714;2022-09-01T16:12:35;12.43;;;6.32;;
7104;SDS011;3594;42.152;24.714;2022-09-01T16:15:00;9.65;;;5.93;;
7104;SDS011;3594;42.152;24.714;2022-09-01T16:20:21;9.25;;;6.20;;
7104;SDS011;3594;42.152;24.714;2022-09-01T16:27:55;9.70;;;6.45;;